sensor_id;sensor_type;location;lat;lon;timestamp;temperature;humidity
54461;DHT22;69977;49.414;11.010;2023-12-14T00:01:57;5.70;99.90
54461;DHT22;69977;49.414;11.010;2023-12-14T00:04:23;5.80;99.90
54461;DHT22;69977;49.414;11.010;2023-12-14T00:06:49;5.80;99.90
54461;DHT22;69977;49.414;11.010;2023-12-14T00:09:15;5.80;99.90
54461;DHT22;69977;49.414;11.010;2023-12-14T00:11:41;5.90;99.90
54461;DHT22;69977;49.414;11.010;2023-12-14T00:14:07;6.00;99.90
54461;DHT22;69977;49.414;11.010;2023-12-14T00:16:33;6.00;99.90
54461;DHT22;69977;49.414;11.010;2023-12-14T00:18:58;6.10;99.90
54461;DHT22;69977;49.414;11.010;2023-12-14T00:21:24;6.10;99.90
54461;DHT22;69977;49.414;11.010;2023-12-14T00:23:50;6.20;99.90
54461;DHT22;69977;49.414;11.010;2023-12-14T00:26:16;6.20;99.90
54461;DHT22;69977;49.414;11.010;2023-12-14T00:28:43;6.20;99.90
54461;DHT22;69977;49.414;11.010;2023-12-14T00:31:09;6.30;99.90
54461;DHT22;69977;49.414;11.010;2023-12-14T00:33:35;6.30;99.90
54461;DHT22;69977;49.414;11.010;2023-12-14T00:36:01;6.30;99.90
54461;DHT22;69977;49.414;11.010;2023-12-14T00:38:26;6.30;99.90
54461;DHT22;69977;49.414;11.010;2023-12-14T00:40:52;6.40;99.90
54461;DHT22;69977;49.414;11.010;2023-12-14T00:43:18;6.30;99.90
54461;DHT22;69977;49.414;11.010;2023-12-14T00:45:44;6.20;99.90
54461;DHT22;69977;49.414;11.010;2023-12-14T00:48:11;6.20;99.90
54461;DHT22;69977;49.414;11.010;2023-12-14T00:50:37;6.20;99.90
54461;DHT22;69977;49.414;11.010;2023-12-14T00:53:03;6.20;99.90
54461;DHT22;69977;49.414;11.010;2023-12-14T00:55:28;6.10;99.90
54461;DHT22;69977;49.414;11.010;2023-12-14T00:57:54;6.10;99.90
54461;DHT22;69977;49.414;11.010;2023-12-14T01:00:20;6.10;99.90
54461;DHT22;69977;49.414;11.010;2023-12-14T01:02:46;6.20;99.90
54461;DHT22;69977;49.414;11.010;2023-12-14T01:05:12;6.10;99.90
54461;DHT22;69977;49.414;11.010;2023-12-14T01:07:38;6.10;99.90
54461;DHT22;69977;49.414;11.010;2023-12-14T01:10:04;6.00;99.90
54461;DHT22;69977;49.414;11.010;2023-12-14T01:12:30;6.00;99.90
54461;DHT22;69977;49.414;11.010;2023-12-14T01:14:56;5.90;99.90
54461;DHT22;69977;49.414;11.010;2023-12-14T01:17:22;5.80;99.90
54461;DHT22;69977;49.414;11.010;2023-12-14T01:19:47;5.80;99.90
54461;DHT22;69977;49.414;11.010;2023-12-14T01:22:13;5.80;99.90
54461;DHT22;69977;49.414;11.010;2023-12-14T01:24:39;5.70;99.90
54461;DHT22;69977;49.414;11.010;2023-12-14T01:27:05;5.60;99.90
54461;DHT22;69977;49.414;11.010;2023-12-14T01:29:31;5.60;99.90
54461;DHT22;69977;49.414;11.010;2023-12-14T01:31:57;5.60;99.90
54461;DHT22;69977;49.414;11.010;2023-12-14T01:34:23;5.70;99.90
54461;DHT22;69977;49.414;11.010;2023-12-14T01:36:49;5.80;99.90
54461;DHT22;69977;49.414;11.010;2023-12-14T01:39:15;5.80;99.90
54461;DHT22;69977;49.414;11.010;2023-12-14T01:41:40;5.90;99.90
54461;DHT22;69977;49.414;11.010;2023-12-14T01:44:06;5.90;99.90
54461;DHT22;69977;49.414;11.010;2023-12-14T01:46:32;5.80;99.90
54461;DHT22;69977;49.414;11.010;2023-12-14T01:48:58;5.90;99.90
54461;DHT22;69977;49.414;11.010;2023-12-14T01:51:24;6.00;99.90
54461;DHT22;69977;49.414;11.010;2023-12-14T01:53:50;6.10;99.90
54461;DHT22;69977;49.414;11.010;2023-12-14T01:56:16;6.10;99.90
54461;DHT22;69977;49.414;11.010;2023-12-14T01:58:42;6.10;99.90
54461;DHT22;69977;49.414;11.010;2023-12-14T02:01:28;6.10;99.90
54461;DHT22;69977;49.414;11.010;2023-12-14T02:03:58;6.10;99.90
54461;DHT22;69977;49.414;11.010;2023-12-14T02:06:23;6.20;99.90
54461;DHT22;69977;49.414;11.010;2023-12-14T02:08:49;6.20;99.90
54461;DHT22;69977;49.414;11.010;2023-12-14T02:11:15;6.20;99.90
54461;DHT22;69977;49.414;11.010;2023-12-14T02:13:41;6.20;99.90
54461;DHT22;69977;49.414;11.010;2023-12-14T02:16:07;6.30;99.90
54461;DHT22;69977;49.414;11.010;2023-12-14T02:18:35;6.30;99.90
54461;DHT22;69977;49.414;11.010;2023-12-14T02:21:00;6.30;99.90
54461;DHT22;69977;49.414;11.010;2023-12-14T02:23:26;6.30;99.90
54461;DHT22;69977;49.414;11.010;2023-12-14T02:25:52;6.30;99.90
54461;DHT22;69977;49.414;11.010;2023-12-14T02:28:18;6.20;99.90
54461;DHT22;69977;49.414;11.010;2023-12-14T02:30:44;6.20;99.90
54461;DHT22;69977;49.414;11.010;2023-12-14T02:33:10;6.20;99.90
54461;DHT22;69977;49.414;11.010;2023-12-14T02:35:36;6.20;99.90
54461;DHT22;69977;49.414;11.010;2023-12-14T02:38:02;6.10;99.90
54461;DHT22;69977;49.414;11.010;2023-12-14T02:40:31;6.10;99.90
54461;DHT22;69977;49.414;11.010;2023-12-14T02:42:56;6.10;99.90
54461;DHT22;69977;49.414;11.010;2023-12-14T02:45:22;6.00;99.90
54461;DHT22;69977;49.414;11.010;2023-12-14T02:47:48;6.00;99.90
54461;DHT22;69977;49.414;11.010;2023-12-14T02:50:15;5.90;99.90
54461;DHT22;69977;49.414;11.010;2023-12-14T02:52:41;5.80;99.90
54461;DHT22;69977;49.414;11.010;2023-12-14T02:55:07;5.80;99.90
54461;DHT22;69977;49.414;11.010;2023-12-14T02:57:33;5.80;99.90
54461;DHT22;69977;49.414;11.010;2023-12-14T02:59:59;5.80;99.90
54461;DHT22;69977;49.414;11.010;2023-12-14T03:02:25;5.80;99.90
54461;DHT22;69977;49.414;11.010;2023-12-14T03:04:51;5.90;99.90
54461;DHT22;69977;49.414;11.010;2023-12-14T03:07:17;5.90;99.90
54461;DHT22;69977;49.414;11.010;2023-12-14T03:09:43;5.90;99.90
54461;DHT22;69977;49.414;11.010;2023-12-14T03:12:10;6.00;99.90
54461;DHT22;69977;49.414;11.010;2023-12-14T03:14:36;6.00;99.90
54461;DHT22;69977;49.414;11.010;2023-12-14T03:17:02;6.00;99.90
54461;DHT22;69977;49.414;11.010;2023-12-14T03:19:28;5.90;99.90
54461;DHT22;69977;49.414;11.010;2023-12-14T03:21:54;5.90;99.90
54461;DHT22;69977;49.414;11.010;2023-12-14T03:24:21;6.00;99.90
54461;DHT22;69977;49.414;11.010;2023-12-14T03:26:46;5.90;99.90
54461;DHT22;69977;49.414;11.010;2023-12-14T03:29:12;5.80;99.90
54461;DHT22;69977;49.414;11.010;2023-12-14T03:31:38;5.80;99.90
54461;DHT22;69977;49.414;11.010;2023-12-14T03:34:05;5.80;99.90
54461;DHT22;69977;49.414;11.010;2023-12-14T03:36:31;5.80;99.90
54461;DHT22;69977;49.414;11.010;2023-12-14T03:38:57;5.90;99.90
54461;DHT22;69977;49.414;11.010;2023-12-14T03:41:23;5.90;99.90
54461;DHT22;69977;49.414;11.010;2023-12-14T03:43:49;5.90;99.90
54461;DHT22;69977;49.414;11.010;2023-12-14T03:46:15;5.90;99.90
54461;DHT22;69977;49.414;11.010;2023-12-14T03:48:41;5.90;99.90
54461;DHT22;69977;49.414;11.010;2023-12-14T03:51:07;5.90;99.90
54461;DHT22;69977;49.414;11.010;2023-12-14T03:53:33;5.90;99.90
54461;DHT22;69977;49.414;11.010;2023-12-14T03:55:59;5.70;99.90
54461;DHT22;69977;49.414;11.010;2023-12-14T03:58:24;5.70;99.90
54461;DHT22;69977;49.414;11.010;2023-12-14T04:00:50;5.40;99.90
54461;DHT22;69977;49.414;11.010;2023-12-14T04:03:16;5.50;99.90
54461;DHT22;69977;49.414;11.010;2023-12-14T04:05:42;5.30;99.90
54461;DHT22;69977;49.414;11.010;2023-12-14T04:08:10;5.30;99.90
54461;DHT22;69977;49.414;11.010;2023-12-14T04:10:36;5.20;99.90
54461;DHT22;69977;49.414;11.010;2023-12-14T04:13:02;5.20;99.90
54461;DHT22;69977;49.414;11.010;2023-12-14T04:15:28;5.30;99.90
54461;DHT22;69977;49.414;11.010;2023-12-14T04:17:54;5.30;99.90
54461;DHT22;69977;49.414;11.010;2023-12-14T04:20:19;5.30;99.90
54461;DHT22;69977;49.414;11.010;2023-12-14T04:22:45;5.30;99.90
54461;DHT22;69977;49.414;11.010;2023-12-14T04:25:11;5.30;99.90
54461;DHT22;69977;49.414;11.010;2023-12-14T04:27:37;5.40;99.90
54461;DHT22;69977;49.414;11.010;2023-12-14T04:30:03;5.40;99.90
54461;DHT22;69977;49.414;11.010;2023-12-14T04:32:30;5.60;99.90
54461;DHT22;69977;49.414;11.010;2023-12-14T04:34:56;5.70;99.90
54461;DHT22;69977;49.414;11.010;2023-12-14T04:37:22;5.70;99.90
54461;DHT22;69977;49.414;11.010;2023-12-14T04:39:48;5.70;99.90
54461;DHT22;69977;49.414;11.010;2023-12-14T04:42:13;5.70;99.90
54461;DHT22;69977;49.414;11.010;2023-12-14T04:44:39;5.70;99.90
54461;DHT22;69977;49.414;11.010;2023-12-14T04:47:05;5.80;99.90
54461;DHT22;69977;49.414;11.010;2023-12-14T04:49:31;5.80;99.90
54461;DHT22;69977;49.414;11.010;2023-12-14T04:51:57;5.70;99.90
54461;DHT22;69977;49.414;11.010;2023-12-14T04:54:23;5.70;99.90
54461;DHT22;69977;49.414;11.010;2023-12-14T04:56:49;5.60;99.90
54461;DHT22;69977;49.414;11.010;2023-12-14T04:59:14;5.70;99.90
54461;DHT22;69977;49.414;11.010;2023-12-14T05:01:40;5.60;99.90
54461;DHT22;69977;49.414;11.010;2023-12-14T05:04:06;5.70;99.90
54461;DHT22;69977;49.414;11.010;2023-12-14T05:06:32;5.60;99.90
54461;DHT22;69977;49.414;11.010;2023-12-14T05:08:59;5.60;99.90
54461;DHT22;69977;49.414;11.010;2023-12-14T05:11:28;5.60;99.90
54461;DHT22;69977;49.414;11.010;2023-12-14T05:13:54;5.60;99.90
54461;DHT22;69977;49.414;11.010;2023-12-14T05:16:20;5.50;99.90
54461;DHT22;69977;49.414;11.010;2023-12-14T05:18:45;5.50;99.90
54461;DHT22;69977;49.414;11.010;2023-12-14T05:21:17;5.50;99.90
54461;DHT22;69977;49.414;11.010;2023-12-14T05:23:43;5.60;99.90
54461;DHT22;69977;49.414;11.010;2023-12-14T05:26:09;5.50;99.90
54461;DHT22;69977;49.414;11.010;2023-12-14T05:28:35;5.40;99.90
54461;DHT22;69977;49.414;11.010;2023-12-14T05:31:00;5.50;99.90
54461;DHT22;69977;49.414;11.010;2023-12-14T05:33:27;5.50;99.90
54461;DHT22;69977;49.414;11.010;2023-12-14T05:35:52;5.50;99.90
54461;DHT22;69977;49.414;11.010;2023-12-14T05:38:19;5.50;99.90
54461;DHT22;69977;49.414;11.010;2023-12-14T05:40:45;5.40;99.90
54461;DHT22;69977;49.414;11.010;2023-12-14T05:43:11;5.30;99.90
54461;DHT22;69977;49.414;11.010;2023-12-14T05:45:37;5.20;99.90
54461;DHT22;69977;49.414;11.010;2023-12-14T05:48:03;5.10;99.90
54461;DHT22;69977;49.414;11.010;2023-12-14T05:50:31;5.10;99.90
54461;DHT22;69977;49.414;11.010;2023-12-14T05:52:57;5.10;99.90
54461;DHT22;69977;49.414;11.010;2023-12-14T05:55:22;5.00;99.90
54461;DHT22;69977;49.414;11.010;2023-12-14T05:57:49;5.10;99.90
54461;DHT22;69977;49.414;11.010;2023-12-14T06:00:15;5.00;99.90
54461;DHT22;69977;49.414;11.010;2023-12-14T06:02:41;4.80;99.90
54461;DHT22;69977;49.414;11.010;2023-12-14T06:05:08;4.70;99.90
54461;DHT22;69977;49.414;11.010;2023-12-14T06:07:34;4.60;99.90
54461;DHT22;69977;49.414;11.010;2023-12-14T06:09:59;4.50;99.90
54461;DHT22;69977;49.414;11.010;2023-12-14T06:12:27;4.50;99.90
54461;DHT22;69977;49.414;11.010;2023-12-14T06:14:53;4.60;99.90
54461;DHT22;69977;49.414;11.010;2023-12-14T06:17:19;4.60;99.90
54461;DHT22;69977;49.414;11.010;2023-12-14T06:19:45;4.70;99.90
54461;DHT22;69977;49.414;11.010;2023-12-14T06:22:10;4.70;99.90
54461;DHT22;69977;49.414;11.010;2023-12-14T06:24:36;4.50;99.90
54461;DHT22;69977;49.414;11.010;2023-12-14T06:27:02;4.60;99.90
54461;DHT22;69977;49.414;11.010;2023-12-14T06:29:29;4.50;99.90
54461;DHT22;69977;49.414;11.010;2023-12-14T06:31:55;4.40;99.90
54461;DHT22;69977;49.414;11.010;2023-12-14T06:34:21;4.50;99.90
54461;DHT22;69977;49.414;11.010;2023-12-14T06:36:47;4.60;99.90
54461;DHT22;69977;49.414;11.010;2023-12-14T06:39:13;4.50;99.90
54461;DHT22;69977;49.414;11.010;2023-12-14T06:41:38;4.60;99.90
54461;DHT22;69977;49.414;11.010;2023-12-14T06:44:05;4.60;99.90
54461;DHT22;69977;49.414;11.010;2023-12-14T06:46:31;4.50;99.90
54461;DHT22;69977;49.414;11.010;2023-12-14T06:48:57;4.60;99.90
54461;DHT22;69977;49.414;11.010;2023-12-14T06:51:23;4.60;99.90
54461;DHT22;69977;49.414;11.010;2023-12-14T06:53:48;4.70;99.90
54461;DHT22;69977;49.414;11.010;2023-12-14T06:56:14;4.70;99.90
54461;DHT22;69977;49.414;11.010;2023-12-14T06:58:41;4.70;99.90
54461;DHT22;69977;49.414;11.010;2023-12-14T07:01:17;4.70;99.90
54461;DHT22;69977;49.414;11.010;2023-12-14T07:03:45;4.70;99.90
54461;DHT22;69977;49.414;11.010;2023-12-14T07:06:15;4.70;99.90
54461;DHT22;69977;49.414;11.010;2023-12-14T07:08:41;4.70;99.90
54461;DHT22;69977;49.414;11.010;2023-12-14T07:11:08;4.80;99.90
54461;DHT22;69977;49.414;11.010;2023-12-14T07:13:34;4.80;99.90
54461;DHT22;69977;49.414;11.010;2023-12-14T07:16:08;4.80;99.90
54461;DHT22;69977;49.414;11.010;2023-12-14T07:18:35;4.90;99.90
54461;DHT22;69977;49.414;11.010;2023-12-14T07:21:04;4.90;99.90
54461;DHT22;69977;49.414;11.010;2023-12-14T07:23:31;4.80;99.90
54461;DHT22;69977;49.414;11.010;2023-12-14T07:25:56;4.90;99.90
54461;DHT22;69977;49.414;11.010;2023-12-14T07:28:23;4.90;99.90
54461;DHT22;69977;49.414;11.010;2023-12-14T07:30:49;5.00;99.90
54461;DHT22;69977;49.414;11.010;2023-12-14T07:33:15;4.90;99.90
54461;DHT22;69977;49.414;11.010;2023-12-14T07:35:41;5.00;99.90
54461;DHT22;69977;49.414;11.010;2023-12-14T07:38:07;5.00;99.90
54461;DHT22;69977;49.414;11.010;2023-12-14T07:40:33;5.00;99.90
54461;DHT22;69977;49.414;11.010;2023-12-14T07:42:59;5.10;99.90
54461;DHT22;69977;49.414;11.010;2023-12-14T07:45:25;5.10;99.90
54461;DHT22;69977;49.414;11.010;2023-12-14T07:47:51;5.20;99.90
54461;DHT22;69977;49.414;11.010;2023-12-14T07:50:17;5.20;99.90
54461;DHT22;69977;49.414;11.010;2023-12-14T07:52:44;5.20;99.90
54461;DHT22;69977;49.414;11.010;2023-12-14T07:55:10;5.30;99.90
54461;DHT22;69977;49.414;11.010;2023-12-14T07:57:36;5.30;99.90
54461;DHT22;69977;49.414;11.010;2023-12-14T08:00:02;5.30;99.90
54461;DHT22;69977;49.414;11.010;2023-12-14T08:02:31;5.30;99.90
54461;DHT22;69977;49.414;11.010;2023-12-14T08:04:57;5.40;99.90
54461;DHT22;69977;49.414;11.010;2023-12-14T08:07:23;5.50;99.90
54461;DHT22;69977;49.414;11.010;2023-12-14T08:09:48;5.50;99.90
54461;DHT22;69977;49.414;11.010;2023-12-14T08:12:14;5.50;99.90
54461;DHT22;69977;49.414;11.010;2023-12-14T08:14:41;5.60;99.90
54461;DHT22;69977;49.414;11.010;2023-12-14T08:17:09;5.70;99.90
54461;DHT22;69977;49.414;11.010;2023-12-14T08:19:36;5.80;99.90
54461;DHT22;69977;49.414;11.010;2023-12-14T08:22:02;5.80;99.90
54461;DHT22;69977;49.414;11.010;2023-12-14T08:24:28;5.80;99.90
54461;DHT22;69977;49.414;11.010;2023-12-14T08:26:54;5.90;99.90
54461;DHT22;69977;49.414;11.010;2023-12-14T08:29:19;6.00;99.90
54461;DHT22;69977;49.414;11.010;2023-12-14T08:31:45;6.10;99.90
54461;DHT22;69977;49.414;11.010;2023-12-14T08:34:11;6.10;99.90
54461;DHT22;69977;49.414;11.010;2023-12-14T08:36:37;6.10;99.90
54461;DHT22;69977;49.414;11.010;2023-12-14T08:39:03;6.10;99.90
54461;DHT22;69977;49.414;11.010;2023-12-14T08:41:29;6.10;99.90
54461;DHT22;69977;49.414;11.010;2023-12-14T08:43:54;6.10;99.90
54461;DHT22;69977;49.414;11.010;2023-12-14T08:46:21;6.10;99.90
54461;DHT22;69977;49.414;11.010;2023-12-14T08:48:48;6.20;99.90
54461;DHT22;69977;49.414;11.010;2023-12-14T08:51:14;6.20;99.90
54461;DHT22;69977;49.414;11.010;2023-12-14T08:53:40;6.30;99.90
54461;DHT22;69977;49.414;11.010;2023-12-14T08:56:08;6.30;99.90
54461;DHT22;69977;49.414;11.010;2023-12-14T08:58:34;6.30;99.90
54461;DHT22;69977;49.414;11.010;2023-12-14T09:01:00;6.40;99.90
54461;DHT22;69977;49.414;11.010;2023-12-14T09:03:25;6.50;99.90
54461;DHT22;69977;49.414;11.010;2023-12-14T09:05:52;6.60;99.90
54461;DHT22;69977;49.414;11.010;2023-12-14T09:08:18;6.60;99.90
54461;DHT22;69977;49.414;11.010;2023-12-14T09:10:44;6.60;99.90
54461;DHT22;69977;49.414;11.010;2023-12-14T09:13:10;6.60;99.90
54461;DHT22;69977;49.414;11.010;2023-12-14T09:15:36;6.70;99.90
54461;DHT22;69977;49.414;11.010;2023-12-14T09:18:02;6.70;99.90
54461;DHT22;69977;49.414;11.010;2023-12-14T09:20:28;6.70;99.90
54461;DHT22;69977;49.414;11.010;2023-12-14T09:22:54;6.70;99.90
54461;DHT22;69977;49.414;11.010;2023-12-14T09:25:20;6.80;99.90
54461;DHT22;69977;49.414;11.010;2023-12-14T09:27:46;6.90;99.90
54461;DHT22;69977;49.414;11.010;2023-12-14T09:30:13;6.90;99.90
54461;DHT22;69977;49.414;11.010;2023-12-14T09:32:38;6.90;99.90
54461;DHT22;69977;49.414;11.010;2023-12-14T09:35:06;6.90;99.90
54461;DHT22;69977;49.414;11.010;2023-12-14T09:37:32;6.90;99.90
54461;DHT22;69977;49.414;11.010;2023-12-14T09:39:58;7.00;99.90
54461;DHT22;69977;49.414;11.010;2023-12-14T09:42:24;7.00;99.90
54461;DHT22;69977;49.414;11.010;2023-12-14T09:44:51;7.00;99.90
54461;DHT22;69977;49.414;11.010;2023-12-14T09:47:18;7.00;99.90
54461;DHT22;69977;49.414;11.010;2023-12-14T09:49:45;7.10;99.90
54461;DHT22;69977;49.414;11.010;2023-12-14T09:52:11;7.10;99.90
54461;DHT22;69977;49.414;11.010;2023-12-14T09:54:38;7.30;99.90
54461;DHT22;69977;49.414;11.010;2023-12-14T09:57:04;7.50;99.90
54461;DHT22;69977;49.414;11.010;2023-12-14T09:59:30;7.50;99.90
54461;DHT22;69977;49.414;11.010;2023-12-14T10:02:09;7.50;99.90
54461;DHT22;69977;49.414;11.010;2023-12-14T10:04:36;7.70;99.90
54461;DHT22;69977;49.414;11.010;2023-12-14T10:07:03;7.80;99.90
54461;DHT22;69977;49.414;11.010;2023-12-14T10:09:33;7.70;99.90
54461;DHT22;69977;49.414;11.010;2023-12-14T10:12:07;7.60;99.90
54461;DHT22;69977;49.414;11.010;2023-12-14T10:14:34;7.60;99.90
54461;DHT22;69977;49.414;11.010;2023-12-14T10:19:45;7.60;99.90
54461;DHT22;69977;49.414;11.010;2023-12-14T10:22:11;7.50;99.90
54461;DHT22;69977;49.414;11.010;2023-12-14T10:24:38;7.50;99.90
54461;DHT22;69977;49.414;11.010;2023-12-14T10:27:06;7.60;99.90
54461;DHT22;69977;49.414;11.010;2023-12-14T10:29:40;7.60;99.90
54461;DHT22;69977;49.414;11.010;2023-12-14T10:32:07;7.50;99.90
54461;DHT22;69977;49.414;11.010;2023-12-14T10:34:35;7.60;99.90
54461;DHT22;69977;49.414;11.010;2023-12-14T10:37:06;7.50;99.90
54461;DHT22;69977;49.414;11.010;2023-12-14T10:39:35;7.40;99.90
54461;DHT22;69977;49.414;11.010;2023-12-14T10:42:03;7.50;99.90
54461;DHT22;69977;49.414;11.010;2023-12-14T10:44:34;7.50;99.90
54461;DHT22;69977;49.414;11.010;2023-12-14T10:47:02;7.50;99.90
54461;DHT22;69977;49.414;11.010;2023-12-14T10:49:30;7.60;99.90
54461;DHT22;69977;49.414;11.010;2023-12-14T10:51:57;7.70;99.90
54461;DHT22;69977;49.414;11.010;2023-12-14T10:54:25;7.70;99.90
54461;DHT22;69977;49.414;11.010;2023-12-14T10:56:55;7.80;99.90
54461;DHT22;69977;49.414;11.010;2023-12-14T10:59:23;7.90;99.90
54461;DHT22;69977;49.414;11.010;2023-12-14T11:01:55;7.90;99.90
54461;DHT22;69977;49.414;11.010;2023-12-14T11:04:22;7.90;99.90
54461;DHT22;69977;49.414;11.010;2023-12-14T11:06:48;7.90;99.90
54461;DHT22;69977;49.414;11.010;2023-12-14T11:09:18;8.00;99.90
54461;DHT22;69977;49.414;11.010;2023-12-14T11:14:19;8.00;99.90
54461;DHT22;69977;49.414;11.010;2023-12-14T11:16:48;8.10;99.90
54461;DHT22;69977;49.414;11.010;2023-12-14T11:22:09;8.10;99.90
54461;DHT22;69977;49.414;11.010;2023-12-14T11:24:35;8.20;99.90
54461;DHT22;69977;49.414;11.010;2023-12-14T11:27:06;8.20;99.90
54461;DHT22;69977;49.414;11.010;2023-12-14T11:29:32;8.10;99.90
54461;DHT22;69977;49.414;11.010;2023-12-14T11:31:58;8.10;99.90
54461;DHT22;69977;49.414;11.010;2023-12-14T11:34:24;8.20;99.90
54461;DHT22;69977;49.414;11.010;2023-12-14T11:36:50;8.20;99.90
54461;DHT22;69977;49.414;11.010;2023-12-14T11:39:16;8.20;99.90
54461;DHT22;69977;49.414;11.010;2023-12-14T11:41:42;8.30;99.90
54461;DHT22;69977;49.414;11.010;2023-12-14T11:44:08;8.30;99.90
54461;DHT22;69977;49.414;11.010;2023-12-14T11:46:34;8.20;99.90
54461;DHT22;69977;49.414;11.010;2023-12-14T11:49:00;8.20;99.90
54461;DHT22;69977;49.414;11.010;2023-12-14T11:51:29;8.20;99.90
54461;DHT22;69977;49.414;11.010;2023-12-14T11:54:00;8.20;99.90
54461;DHT22;69977;49.414;11.010;2023-12-14T11:56:26;8.30;99.90
54461;DHT22;69977;49.414;11.010;2023-12-14T11:58:52;8.30;99.90
54461;DHT22;69977;49.414;11.010;2023-12-14T12:01:20;8.40;99.90
54461;DHT22;69977;49.414;11.010;2023-12-14T12:03:47;8.40;99.90
54461;DHT22;69977;49.414;11.010;2023-12-14T12:06:26;8.40;99.90
54461;DHT22;69977;49.414;11.010;2023-12-14T12:08:57;8.40;99.90
54461;DHT22;69977;49.414;11.010;2023-12-14T12:11:24;8.40;99.90
54461;DHT22;69977;49.414;11.010;2023-12-14T12:13:57;8.40;99.90
54461;DHT22;69977;49.414;11.010;2023-12-14T12:16:23;8.40;99.90
54461;DHT22;69977;49.414;11.010;2023-12-14T12:18:50;8.40;99.90
54461;DHT22;69977;49.414;11.010;2023-12-14T12:21:16;8.40;99.90
54461;DHT22;69977;49.414;11.010;2023-12-14T12:23:42;8.40;99.90
54461;DHT22;69977;49.414;11.010;2023-12-14T12:26:08;8.50;99.90
54461;DHT22;69977;49.414;11.010;2023-12-14T12:28:34;8.50;99.90
54461;DHT22;69977;49.414;11.010;2023-12-14T12:31:00;8.50;99.90
54461;DHT22;69977;49.414;11.010;2023-12-14T12:33:26;8.50;99.90
54461;DHT22;69977;49.414;11.010;2023-12-14T12:35:53;8.40;99.90
54461;DHT22;69977;49.414;11.010;2023-12-14T12:38:19;8.40;99.90
54461;DHT22;69977;49.414;11.010;2023-12-14T12:40:45;8.30;99.90
54461;DHT22;69977;49.414;11.010;2023-12-14T12:43:13;8.20;99.90
54461;DHT22;69977;49.414;11.010;2023-12-14T12:45:39;8.10;99.90
54461;DHT22;69977;49.414;11.010;2023-12-14T12:48:05;8.10;99.90
54461;DHT22;69977;49.414;11.010;2023-12-14T12:50:33;8.10;99.90
54461;DHT22;69977;49.414;11.010;2023-12-14T12:52:59;8.00;99.90
54461;DHT22;69977;49.414;11.010;2023-12-14T12:55:25;8.00;99.90
54461;DHT22;69977;49.414;11.010;2023-12-14T12:57:50;7.90;99.90
54461;DHT22;69977;49.414;11.010;2023-12-14T13:00:16;7.90;99.90
54461;DHT22;69977;49.414;11.010;2023-12-14T13:02:44;7.90;99.90
54461;DHT22;69977;49.414;11.010;2023-12-14T13:05:13;7.90;99.90
54461;DHT22;69977;49.414;11.010;2023-12-14T13:07:41;7.90;99.90
54461;DHT22;69977;49.414;11.010;2023-12-14T13:10:07;7.80;99.90
54461;DHT22;69977;49.414;11.010;2023-12-14T13:12:34;7.80;99.90
54461;DHT22;69977;49.414;11.010;2023-12-14T13:15:00;7.80;99.90
54461;DHT22;69977;49.414;11.010;2023-12-14T13:17:26;7.80;99.90
54461;DHT22;69977;49.414;11.010;2023-12-14T13:19:52;7.80;99.90
54461;DHT22;69977;49.414;11.010;2023-12-14T13:22:19;7.80;99.90
54461;DHT22;69977;49.414;11.010;2023-12-14T13:24:45;7.80;99.90
54461;DHT22;69977;49.414;11.010;2023-12-14T13:27:11;7.90;99.90
54461;DHT22;69977;49.414;11.010;2023-12-14T13:29:38;7.90;99.90
54461;DHT22;69977;49.414;11.010;2023-12-14T13:32:04;7.90;99.90
54461;DHT22;69977;49.414;11.010;2023-12-14T13:34:29;7.90;99.90
54461;DHT22;69977;49.414;11.010;2023-12-14T13:36:56;7.90;99.90
54461;DHT22;69977;49.414;11.010;2023-12-14T13:39:22;7.80;99.90
54461;DHT22;69977;49.414;11.010;2023-12-14T13:41:48;7.80;99.90
54461;DHT22;69977;49.414;11.010;2023-12-14T13:44:14;7.70;99.90
54461;DHT22;69977;49.414;11.010;2023-12-14T13:46:40;7.60;99.90
54461;DHT22;69977;49.414;11.010;2023-12-14T13:49:06;7.60;99.90
54461;DHT22;69977;49.414;11.010;2023-12-14T13:51:32;7.60;99.90
54461;DHT22;69977;49.414;11.010;2023-12-14T13:53:58;7.50;99.90
54461;DHT22;69977;49.414;11.010;2023-12-14T13:56:24;7.50;99.90
54461;DHT22;69977;49.414;11.010;2023-12-14T13:58:50;7.50;99.90
54461;DHT22;69977;49.414;11.010;2023-12-14T14:01:16;7.50;99.90
54461;DHT22;69977;49.414;11.010;2023-12-14T14:03:42;7.50;99.90
54461;DHT22;69977;49.414;11.010;2023-12-14T14:06:08;7.50;99.90
54461;DHT22;69977;49.414;11.010;2023-12-14T14:08:34;7.30;99.90
54461;DHT22;69977;49.414;11.010;2023-12-14T14:11:01;7.30;99.90
54461;DHT22;69977;49.414;11.010;2023-12-14T14:13:27;7.30;99.90
54461;DHT22;69977;49.414;11.010;2023-12-14T14:15:54;7.20;99.90
54461;DHT22;69977;49.414;11.010;2023-12-14T14:18:20;7.20;99.90
54461;DHT22;69977;49.414;11.010;2023-12-14T14:20:46;7.10;99.90
54461;DHT22;69977;49.414;11.010;2023-12-14T14:23:11;7.10;99.90
54461;DHT22;69977;49.414;11.010;2023-12-14T14:25:37;7.10;99.90
54461;DHT22;69977;49.414;11.010;2023-12-14T14:28:03;7.10;99.90
54461;DHT22;69977;49.414;11.010;2023-12-14T14:30:30;7.10;99.90
54461;DHT22;69977;49.414;11.010;2023-12-14T14:32:56;7.10;99.90
54461;DHT22;69977;49.414;11.010;2023-12-14T14:35:23;7.00;99.90
54461;DHT22;69977;49.414;11.010;2023-12-14T14:37:51;7.10;99.90
54461;DHT22;69977;49.414;11.010;2023-12-14T14:40:17;7.10;99.90
54461;DHT22;69977;49.414;11.010;2023-12-14T14:42:44;7.10;99.90
54461;DHT22;69977;49.414;11.010;2023-12-14T14:45:11;7.10;99.90
54461;DHT22;69977;49.414;11.010;2023-12-14T14:47:37;7.10;99.90
54461;DHT22;69977;49.414;11.010;2023-12-14T14:50:04;7.10;99.90
54461;DHT22;69977;49.414;11.010;2023-12-14T14:52:33;7.10;99.90
54461;DHT22;69977;49.414;11.010;2023-12-14T14:54:59;7.10;99.90
54461;DHT22;69977;49.414;11.010;2023-12-14T14:57:26;7.10;99.90
54461;DHT22;69977;49.414;11.010;2023-12-14T14:59:52;7.10;99.90
54461;DHT22;69977;49.414;11.010;2023-12-14T15:02:18;7.10;99.90
54461;DHT22;69977;49.414;11.010;2023-12-14T15:04:45;7.00;99.90
54461;DHT22;69977;49.414;11.010;2023-12-14T15:07:10;7.10;99.90
54461;DHT22;69977;49.414;11.010;2023-12-14T15:09:36;7.00;99.90
54461;DHT22;69977;49.414;11.010;2023-12-14T15:12:02;7.00;99.90
54461;DHT22;69977;49.414;11.010;2023-12-14T15:14:29;7.00;99.90
54461;DHT22;69977;49.414;11.010;2023-12-14T15:16:55;7.00;99.90
54461;DHT22;69977;49.414;11.010;2023-12-14T15:19:21;6.90;99.90
54461;DHT22;69977;49.414;11.010;2023-12-14T15:21:47;6.90;99.90
54461;DHT22;69977;49.414;11.010;2023-12-14T15:24:13;6.90;99.90
54461;DHT22;69977;49.414;11.010;2023-12-14T15:26:41;6.90;99.90
54461;DHT22;69977;49.414;11.010;2023-12-14T15:29:07;6.90;99.90
54461;DHT22;69977;49.414;11.010;2023-12-14T15:31:33;6.90;99.90
54461;DHT22;69977;49.414;11.010;2023-12-14T15:33:59;6.90;99.90